createdAt,value
2023-05-19T00:01:23.008Z,18.01
2023-05-19T00:04:24.787Z,18.01
2023-05-19T00:07:31.002Z,18.01
2023-05-19T00:10:33.118Z,18.00
2023-05-19T00:13:35.255Z,17.99
2023-05-19T00:16:42.152Z,17.98
2023-05-19T00:19:45.023Z,17.97
2023-05-19T00:22:46.692Z,17.95
2023-05-19T00:25:48.215Z,17.95
2023-05-19T00:28:50.304Z,17.95
2023-05-19T00:31:51.910Z,17.93
2023-05-19T00:34:53.571Z,17.92
2023-05-19T00:37:55.485Z,17.92
2023-05-19T00:40:57.298Z,17.92
2023-05-19T00:43:58.806Z,17.91
2023-05-19T00:47:00.574Z,17.89
2023-05-19T00:50:02.282Z,17.89
2023-05-19T00:53:04.139Z,17.89
2023-05-19T00:56:05.984Z,17.87
2023-05-19T00:59:08.602Z,17.87
2023-05-19T01:02:10.333Z,17.86
2023-05-19T01:05:13.329Z,17.87
2023-05-19T01:08:14.892Z,17.86
2023-05-19T01:11:16.439Z,17.86
2023-05-19T01:14:19.601Z,17.86
2023-05-19T01:17:30.491Z,17.86
2023-05-19T01:20:38.541Z,17.85
2023-05-19T01:24:18.197Z,17.85
2023-05-19T01:27:57.044Z,17.84
2023-05-19T01:31:00.728Z,17.82
2023-05-19T01:34:04.714Z,17.82
2023-05-19T01:37:07.811Z,17.82
2023-05-19T01:40:10.053Z,17.78
2023-05-19T01:43:15.016Z,17.79
2023-05-19T01:46:17.539Z,17.80
2023-05-19T01:49:19.164Z,17.78
2023-05-19T01:52:20.771Z,17.76
2023-05-19T01:55:24.027Z,17.77
2023-05-19T01:58:31.592Z,17.76
2023-05-19T02:01:53.695Z,17.77
2023-05-19T02:05:00.307Z,17.76
2023-05-19T02:08:35.570Z,17.75
2023-05-19T02:11:42.021Z,17.74
2023-05-19T02:15:18.050Z,17.74
2023-05-19T02:18:20.406Z,17.73
2023-05-19T02:21:25.773Z,17.73
2023-05-19T02:24:27.337Z,17.74
2023-05-19T02:27:29.857Z,17.72
2023-05-19T02:30:32.005Z,17.71
2023-05-19T02:33:36.194Z,17.72
2023-05-19T02:36:40.945Z,17.72
2023-05-19T02:39:44.249Z,17.71
2023-05-19T02:42:46.092Z,17.69
2023-05-19T02:45:47.664Z,17.70
2023-05-19T02:48:49.538Z,17.70
2023-05-19T02:51:51.081Z,17.69
2023-05-19T02:54:52.622Z,17.68
2023-05-19T02:57:54.205Z,17.69
2023-05-19T03:00:56.106Z,17.68
2023-05-19T03:03:57.911Z,17.68
2023-05-19T03:06:59.522Z,17.67
2023-05-19T03:10:03.822Z,17.67
2023-05-19T03:13:05.603Z,17.67
2023-05-19T03:16:08.097Z,17.67
2023-05-19T03:19:10.001Z,17.66
2023-05-19T03:22:11.824Z,17.65
2023-05-19T03:25:13.773Z,17.66
2023-05-19T03:28:15.941Z,17.65
2023-05-19T03:31:17.605Z,17.64
2023-05-19T03:34:19.220Z,17.64
2023-05-19T03:37:20.941Z,17.63
2023-05-19T03:40:22.506Z,17.63
2023-05-19T03:43:26.337Z,17.63
2023-05-19T03:46:32.414Z,17.63
2023-05-19T03:49:33.981Z,17.62
2023-05-19T03:52:46.587Z,17.62
2023-05-19T03:55:59.362Z,17.62
2023-05-19T03:59:00.938Z,17.60
2023-05-19T04:02:03.800Z,17.60
2023-05-19T04:05:05.715Z,17.61
2023-05-19T04:08:07.312Z,17.59
2023-05-19T04:11:09.023Z,17.58
2023-05-19T04:14:10.751Z,17.58
2023-05-19T04:17:12.522Z,17.57
2023-05-19T04:20:14.104Z,17.57
2023-05-19T04:23:15.667Z,17.55
2023-05-19T04:26:18.034Z,17.55
2023-05-19T04:29:19.627Z,17.56
2023-05-19T04:32:22.570Z,17.54
2023-05-19T04:35:25.369Z,17.54
2023-05-19T04:38:29.881Z,17.54
2023-05-19T04:41:31.527Z,17.53
2023-05-19T04:44:33.671Z,17.53
2023-05-19T04:47:38.413Z,17.53
2023-05-19T04:50:42.130Z,17.52
2023-05-19T04:53:43.882Z,17.53
2023-05-19T04:56:47.205Z,17.51
2023-05-19T04:59:49.671Z,17.52
2023-05-19T05:02:51.340Z,17.52
2023-05-19T05:05:56.663Z,17.51
2023-05-19T05:08:59.844Z,17.52
2023-05-19T05:12:02.446Z,17.51
2023-05-19T05:15:06.903Z,17.52
2023-05-19T05:18:08.908Z,17.50
2023-05-19T05:21:10.933Z,17.51
2023-05-19T05:24:13.080Z,17.51
2023-05-19T05:27:19.022Z,17.50
2023-05-19T05:30:20.636Z,17.50
2023-05-19T05:33:24.647Z,17.50
2023-05-19T05:36:26.446Z,17.50
2023-05-19T05:39:28.699Z,17.50
2023-05-19T05:42:30.775Z,17.50
2023-05-19T05:45:32.594Z,17.50
2023-05-19T05:48:36.341Z,17.50
2023-05-19T05:51:40.656Z,17.50
2023-05-19T05:54:43.826Z,17.50
2023-05-19T05:57:48.669Z,17.50
2023-05-19T06:00:51.373Z,17.50
2023-05-19T06:03:52.992Z,17.50
2023-05-19T06:07:01.067Z,17.49
2023-05-19T06:10:07.285Z,17.50
2023-05-19T06:13:09.319Z,17.49
2023-05-19T06:16:12.843Z,17.48
2023-05-19T06:19:20.051Z,17.50
2023-05-19T06:22:21.713Z,17.49
2023-05-19T06:25:24.650Z,17.49
2023-05-19T06:28:26.512Z,17.50
2023-05-19T06:31:28.883Z,17.50
2023-05-19T06:34:33.418Z,17.49
2023-05-19T06:37:34.928Z,17.50
2023-05-19T06:40:37.695Z,17.49
2023-05-19T06:43:39.226Z,17.50
2023-05-19T06:46:40.906Z,17.51
2023-05-19T06:49:43.401Z,17.49
2023-05-19T06:52:46.919Z,17.49
2023-05-19T06:55:59.557Z,17.49
2023-05-19T06:59:04.034Z,17.49
2023-05-19T07:02:10.019Z,17.48
2023-05-19T07:05:11.797Z,17.47
2023-05-19T07:08:13.462Z,17.45
2023-05-19T07:11:15.433Z,17.45
2023-05-19T07:14:17.972Z,17.45
2023-05-19T07:17:19.746Z,17.44
2023-05-19T07:20:21.289Z,17.44
2023-05-19T07:23:23.093Z,17.44
2023-05-19T07:26:24.704Z,17.43
2023-05-19T07:29:26.398Z,17.43
2023-05-19T07:32:28.027Z,17.43
2023-05-19T07:35:29.620Z,17.44
2023-05-19T07:38:34.349Z,17.43
2023-05-19T07:41:36.541Z,17.43
2023-05-19T07:44:38.122Z,17.42
2023-05-19T07:47:39.633Z,17.42
2023-05-19T07:50:41.330Z,17.41
2023-05-19T07:53:42.869Z,17.41
2023-05-19T07:56:44.428Z,17.39
2023-05-19T07:59:46.021Z,17.40
2023-05-19T08:02:47.639Z,17.40
2023-05-19T08:05:49.198Z,17.40
2023-05-19T08:08:51.393Z,17.39
2023-05-19T08:11:52.927Z,17.39
2023-05-19T08:14:54.550Z,17.39
2023-05-19T08:17:56.119Z,17.39
2023-05-19T08:20:57.770Z,17.39
2023-05-19T08:23:59.278Z,17.38
2023-05-19T08:27:00.876Z,17.39
2023-05-19T08:30:02.524Z,17.39
2023-05-19T08:33:04.286Z,17.40
2023-05-19T08:36:06.594Z,17.39
2023-05-19T08:39:08.179Z,17.38
2023-05-19T08:42:10.022Z,17.39
2023-05-19T08:45:12.589Z,17.41
2023-05-19T08:48:16.745Z,17.40
2023-05-19T08:51:25.195Z,17.39
2023-05-19T08:54:33.693Z,17.41
2023-05-19T08:57:36.849Z,17.41
2023-05-19T09:00:38.621Z,17.39
2023-05-19T09:03:41.416Z,17.38
2023-05-19T09:06:45.092Z,17.38
2023-05-19T09:09:47.718Z,17.38
2023-05-19T09:12:49.752Z,17.36
2023-05-19T09:15:53.165Z,17.37
2023-05-19T09:18:56.764Z,17.37
2023-05-19T09:22:04.778Z,17.37
2023-05-19T09:25:06.731Z,17.35
2023-05-19T09:28:09.797Z,17.35
2023-05-19T09:31:11.641Z,17.34
2023-05-19T09:34:13.470Z,17.34
2023-05-19T09:37:14.984Z,17.33
2023-05-19T09:40:16.493Z,17.33
2023-05-19T09:43:18.163Z,17.33
2023-05-19T09:46:28.362Z,17.35
2023-05-19T09:49:30.788Z,17.34
2023-05-19T09:52:35.788Z,17.34
2023-05-19T09:55:37.439Z,17.34
2023-05-19T09:58:42.503Z,17.34
2023-05-19T10:01:46.547Z,17.34
2023-05-19T10:04:48.585Z,17.33
2023-05-19T10:07:54.582Z,17.35
2023-05-19T10:10:56.889Z,17.34
2023-05-19T10:13:59.136Z,17.35
2023-05-19T10:17:00.925Z,17.34
2023-05-19T10:20:03.718Z,17.35
2023-05-19T10:23:05.412Z,17.35
2023-05-19T10:26:08.463Z,17.36
2023-05-19T10:29:11.263Z,17.36
2023-05-19T10:32:20.954Z,17.38
2023-05-19T10:35:35.011Z,17.40
2023-05-19T10:39:01.028Z,17.39
2023-05-19T10:42:41.002Z,17.41
2023-05-19T10:45:51.641Z,17.41
2023-05-19T10:48:54.073Z,17.39
2023-05-19T10:51:58.538Z,17.38
2023-05-19T10:55:00.933Z,17.39
2023-05-19T10:58:02.868Z,17.39
2023-05-19T11:01:08.639Z,17.39
2023-05-19T11:04:12.291Z,17.38
2023-05-19T11:07:21.688Z,17.40
2023-05-19T11:10:24.589Z,17.39
2023-05-19T11:16:32.140Z,17.38
2023-05-19T11:19:37.142Z,17.39
2023-05-19T11:22:39.929Z,17.38
2023-05-19T11:25:46.784Z,17.38
2023-05-19T11:28:49.052Z,17.36
2023-05-19T11:31:51.884Z,17.37
2023-05-19T11:34:55.681Z,17.37
2023-05-19T11:37:57.589Z,17.36
2023-05-19T11:41:00.683Z,17.37
2023-05-19T11:44:02.228Z,17.36
2023-05-19T11:47:04.943Z,17.37
2023-05-19T11:50:07.090Z,17.38
2023-05-19T11:53:12.358Z,17.38
2023-05-19T11:56:15.144Z,17.37
2023-05-19T11:59:16.680Z,17.37
2023-05-19T12:02:25.876Z,17.37
2023-05-19T12:05:28.840Z,17.37
2023-05-19T12:08:30.467Z,17.39
2023-05-19T12:11:32.054Z,17.39
2023-05-19T12:14:34.453Z,17.39
2023-05-19T12:17:36.443Z,17.39
2023-05-19T12:20:38.163Z,17.39
2023-05-19T12:23:41.483Z,17.38
2023-05-19T12:26:43.191Z,17.39
2023-05-19T12:29:51.679Z,17.39
2023-05-19T12:32:54.180Z,17.38
2023-05-19T12:35:56.286Z,17.38
2023-05-19T12:38:58.058Z,17.39
2023-05-19T12:42:10.656Z,17.39
2023-05-19T12:45:12.396Z,17.39
2023-05-19T12:48:18.084Z,17.41
2023-05-19T12:51:20.390Z,17.40
2023-05-19T12:54:22.282Z,17.41
2023-05-19T12:57:26.107Z,17.42
2023-05-19T13:00:30.948Z,17.41
2023-05-19T13:03:32.923Z,17.42
2023-05-19T13:06:34.543Z,17.42
2023-05-19T13:09:36.463Z,17.43
2023-05-19T13:12:37.994Z,17.43
2023-05-19T13:15:42.017Z,17.43
2023-05-19T13:18:43.910Z,17.42
2023-05-19T13:21:47.477Z,17.41
2023-05-19T13:24:49.036Z,17.41
2023-05-19T13:27:51.012Z,17.40
2023-05-19T13:30:52.749Z,17.40
2023-05-19T13:33:54.454Z,17.41
2023-05-19T13:36:56.641Z,17.41
2023-05-19T13:40:00.989Z,17.41
2023-05-19T13:43:03.767Z,17.41
2023-05-19T13:46:06.050Z,17.41
2023-05-19T13:49:07.652Z,17.41
2023-05-19T13:52:09.184Z,17.42
2023-05-19T13:55:10.898Z,17.41
2023-05-19T13:58:14.291Z,17.42
2023-05-19T14:01:15.878Z,17.42
2023-05-19T14:04:18.454Z,17.43
2023-05-19T14:07:20.105Z,17.43
2023-05-19T14:10:21.732Z,17.43
2023-05-19T14:16:28.651Z,17.43
2023-05-19T14:19:30.547Z,17.44
2023-05-19T14:22:32.267Z,17.44
2023-05-19T14:25:33.841Z,17.44
2023-05-19T14:28:35.389Z,17.44
2023-05-19T14:31:37.010Z,17.45
2023-05-19T14:34:38.567Z,17.46
2023-05-19T14:37:40.098Z,17.46
2023-05-19T14:40:41.753Z,17.47
2023-05-19T14:43:43.317Z,17.46
2023-05-19T14:46:44.964Z,17.47
2023-05-19T14:49:46.767Z,17.49
2023-05-19T14:52:48.294Z,17.50
2023-05-19T14:55:49.929Z,17.53
2023-05-19T14:58:51.615Z,17.53
2023-05-19T15:01:53.236Z,17.54
2023-05-19T15:04:54.757Z,17.55
2023-05-19T15:07:56.448Z,17.58
2023-05-19T15:10:58.033Z,17.59
2023-05-19T15:13:59.734Z,17.58
2023-05-19T15:17:01.413Z,17.58
2023-05-19T15:20:03.132Z,17.59
2023-05-19T15:23:04.700Z,17.57
2023-05-19T15:26:06.792Z,17.57
2023-05-19T15:29:08.309Z,17.57
2023-05-19T15:32:09.938Z,17.59
2023-05-19T15:35:11.514Z,17.58
2023-05-19T15:38:13.082Z,17.60
2023-05-19T15:41:14.602Z,17.62
2023-05-19T15:44:16.190Z,17.64
2023-05-19T15:47:17.732Z,17.65
2023-05-19T15:50:19.330Z,17.67
2023-05-19T15:53:20.837Z,17.67
2023-05-19T15:56:22.490Z,17.69
2023-05-19T15:59:24.131Z,17.68
2023-05-19T16:02:25.706Z,17.70
2023-05-19T16:05:27.397Z,17.71
2023-05-19T16:08:29.012Z,17.70
2023-05-19T16:11:30.623Z,17.65
2023-05-19T16:14:36.265Z,17.62
2023-05-19T16:17:37.867Z,17.58
2023-05-19T16:20:39.394Z,17.55
2023-05-19T16:23:40.895Z,17.52
2023-05-19T16:26:42.404Z,17.51
2023-05-19T16:29:43.984Z,17.50
2023-05-19T16:32:45.666Z,17.49
2023-05-19T16:35:47.285Z,17.48
2023-05-19T16:38:48.863Z,17.48
2023-05-19T16:41:50.530Z,17.47
2023-05-19T16:44:52.136Z,17.44
2023-05-19T16:47:53.769Z,17.43
2023-05-19T16:50:55.457Z,17.42
2023-05-19T16:53:56.996Z,17.42
2023-05-19T16:56:58.543Z,17.42
2023-05-19T17:00:00.069Z,17.41
2023-05-19T17:03:01.733Z,17.40
2023-05-19T17:06:03.538Z,17.39
2023-05-19T17:09:05.098Z,17.38
2023-05-19T17:12:06.983Z,17.38
2023-05-19T17:15:08.934Z,17.40
2023-05-19T17:18:12.427Z,17.40
2023-05-19T17:21:14.081Z,17.39
2023-05-19T17:24:15.612Z,17.39
2023-05-19T17:27:17.131Z,17.41
2023-05-19T17:30:18.771Z,17.38
2023-05-19T17:33:20.874Z,17.39
2023-05-19T17:36:22.618Z,17.39
2023-05-19T17:39:24.825Z,17.39
2023-05-19T17:42:26.495Z,17.40
2023-05-19T17:45:31.162Z,17.41
2023-05-19T17:48:33.144Z,17.40
2023-05-19T17:51:34.911Z,17.41
2023-05-19T17:54:36.770Z,17.40
2023-05-19T17:57:42.611Z,17.39
2023-05-19T18:00:44.424Z,17.39
2023-05-19T18:03:49.494Z,17.39
2023-05-19T18:06:52.010Z,17.39
2023-05-19T18:09:55.828Z,17.40
2023-05-19T18:12:57.316Z,17.39
2023-05-19T18:15:59.711Z,17.40
2023-05-19T18:19:01.615Z,17.39
2023-05-19T18:22:03.518Z,17.38
2023-05-19T18:25:05.721Z,17.40
2023-05-19T18:28:07.674Z,17.41
2023-05-19T18:31:10.960Z,17.42
2023-05-19T18:34:13.864Z,17.42
2023-05-19T18:37:15.505Z,17.42
2023-05-19T18:40:17.126Z,17.42
2023-05-19T18:43:19.102Z,17.43
2023-05-19T18:46:20.939Z,17.44
2023-05-19T18:49:24.693Z,17.44
2023-05-19T18:52:28.233Z,17.45
2023-05-19T18:55:29.966Z,17.45
2023-05-19T18:58:31.861Z,17.45
2023-05-19T19:01:33.455Z,17.46
2023-05-19T19:04:35.081Z,17.46
2023-05-19T19:07:41.134Z,17.48
2023-05-19T19:10:45.098Z,17.48
2023-05-19T19:13:46.949Z,17.48
2023-05-19T19:16:48.695Z,17.47
2023-05-19T19:19:50.369Z,17.47
2023-05-19T19:22:52.088Z,17.49
2023-05-19T19:25:53.694Z,17.49
2023-05-19T19:28:56.105Z,17.49
2023-05-19T19:31:57.806Z,17.49
2023-05-19T19:34:59.437Z,17.49
2023-05-19T19:38:01.231Z,17.52
2023-05-19T19:41:02.952Z,17.52
2023-05-19T19:44:04.691Z,17.52
2023-05-19T19:47:06.441Z,17.53
2023-05-19T19:50:08.590Z,17.54
2023-05-19T19:53:10.278Z,17.55
2023-05-19T19:56:11.830Z,17.55
2023-05-19T19:59:13.398Z,17.57
2023-05-19T20:02:15.033Z,17.57
2023-05-19T20:05:16.766Z,17.57
2023-05-19T20:08:19.994Z,17.58
2023-05-19T20:11:23.650Z,17.59
2023-05-19T20:14:25.315Z,17.60
2023-05-19T20:17:26.914Z,17.59
2023-05-19T20:20:28.479Z,17.59
2023-05-19T20:23:29.991Z,17.59
2023-05-19T20:26:31.849Z,17.58
2023-05-19T20:29:33.460Z,17.60
2023-05-19T20:32:35.158Z,17.60
2023-05-19T20:35:36.725Z,17.60
2023-05-19T20:38:38.254Z,17.60
2023-05-19T20:41:39.802Z,17.60
2023-05-19T20:44:41.603Z,17.60
2023-05-19T20:47:43.192Z,17.59
2023-05-19T20:50:44.848Z,17.60
2023-05-19T20:53:46.329Z,17.60
2023-05-19T20:56:47.873Z,17.62
2023-05-19T20:59:49.400Z,17.62
2023-05-19T21:02:50.988Z,17.62
2023-05-19T21:05:53.371Z,17.63
2023-05-19T21:08:54.854Z,17.63
2023-05-19T21:11:56.384Z,17.63
2023-05-19T21:14:57.951Z,17.63
2023-05-19T21:17:59.534Z,17.62
2023-05-19T21:21:04.313Z,17.66
2023-05-19T21:24:06.149Z,17.64
2023-05-19T21:27:07.631Z,17.63
2023-05-19T21:30:09.651Z,17.65
2023-05-19T21:33:11.471Z,17.64
2023-05-19T21:36:13.103Z,17.64
2023-05-19T21:39:14.652Z,17.65
2023-05-19T21:42:16.166Z,17.66
2023-05-19T21:45:17.732Z,17.66
2023-05-19T21:48:19.616Z,17.66
2023-05-19T21:51:21.341Z,17.66
2023-05-19T21:54:22.840Z,17.66
2023-05-19T21:57:24.327Z,17.67
2023-05-19T22:00:25.884Z,17.68
2023-05-19T22:03:27.680Z,17.67
2023-05-19T22:06:29.714Z,17.67
2023-05-19T22:09:31.300Z,17.67
2023-05-19T22:12:33.066Z,17.67
2023-05-19T22:15:34.766Z,17.68
2023-05-19T22:18:36.308Z,17.67
2023-05-19T22:21:37.803Z,17.68
2023-05-19T22:24:39.343Z,17.68
2023-05-19T22:27:40.843Z,17.67
2023-05-19T22:30:42.703Z,17.68
2023-05-19T22:33:45.468Z,17.68
2023-05-19T22:36:46.999Z,17.67
2023-05-19T22:39:48.490Z,17.66
2023-05-19T22:42:50.014Z,17.67
2023-05-19T22:45:51.533Z,17.67
2023-05-19T22:48:53.099Z,17.66
2023-05-19T22:51:54.597Z,17.66
2023-05-19T22:54:56.081Z,17.66
2023-05-19T22:57:57.670Z,17.67
2023-05-19T23:00:59.178Z,17.66
2023-05-19T23:04:00.830Z,17.66
2023-05-19T23:07:02.439Z,17.66
2023-05-19T23:10:05.955Z,17.65
2023-05-19T23:13:09.414Z,17.65
2023-05-19T23:16:10.892Z,17.64
2023-05-19T23:19:12.576Z,17.64
2023-05-19T23:22:14.087Z,17.64
2023-05-19T23:25:15.738Z,17.65
2023-05-19T23:28:17.292Z,17.63
2023-05-19T23:31:18.831Z,17.63
2023-05-19T23:34:20.519Z,17.63
2023-05-19T23:37:22.017Z,17.63
2023-05-19T23:40:23.572Z,17.63
2023-05-19T23:43:25.041Z,17.63
2023-05-19T23:46:26.695Z,17.64
2023-05-19T23:49:28.250Z,17.63
2023-05-19T23:52:29.914Z,17.62
2023-05-19T23:55:31.518Z,17.62
2023-05-19T23:58:33.121Z,17.62
